Time;durP1;ratioP1;P1;durP2;ratioP2;P2;SDS_P1;SDS_P2;PMS_P1;PMS_P2;Temp;Humidity;BMP_temperature;BMP_pressure;BME280_temperature;BME280_humidity;BME280_pressure;Samples;Min_cycle;Max_cycle;Signal;HPM_P1;HPM_P2
2022/05/13 00:00:32;;;;;;;15.77;6.10;;;;;;;18.77;45.08;100400.13;124694;1099;104169;-75
2022/05/13 00:03:07;;;;;;;19.37;6.73;;;;;;;18.73;45.72;100408.97;124729;1099;104283;-75
2022/05/13 00:05:39;;;;;;;15.93;6.47;;;;;;;18.67;45.88;100417.84;124715;1099;104254;-75
2022/05/13 00:08:11;;;;;;;15.27;6.50;;;;;;;18.63;45.97;100416.93;124689;1099;104271;-75
2022/05/13 00:10:44;;;;;;;19.70;6.67;;;;;;;18.65;45.60;100414.27;124723;1099;104594;-76
2022/05/13 00:13:16;;;;;;;14.00;6.33;;;;;;;18.63;46.05;100414.27;124625;1099;101954;-76
2022/05/13 00:15:48;;;;;;;18.17;6.60;;;;;;;18.62;46.21;100417.84;124674;1099;104159;-75
2022/05/13 00:18:20;;;;;;;15.15;6.45;;;;;;;18.58;46.22;100417.83;124685;1099;102947;-75
2022/05/13 00:20:51;;;;;;;19.37;6.90;;;;;;;18.54;46.24;100416.04;124750;1096;104417;-75
2022/05/13 00:23:24;;;;;;;17.57;6.97;;;;;;;18.51;46.57;100416.91;124727;1099;104245;-75
2022/05/13 00:25:55;;;;;;;16.33;6.90;;;;;;;18.46;46.79;100419.55;124696;1099;104153;-75
2022/05/13 00:28:29;;;;;;;15.73;6.30;;;;;;;18.42;46.73;100419.58;124726;1099;102236;-75
2022/05/13 00:31:00;;;;;;;;;;;;;;;18.31;46.44;100416.89;124704;1099;104258;-75
2022/05/13 00:33:31;;;;;;;12.50;5.83;;;;;;;18.26;46.95;100414.22;124697;1099;104184;-75
2022/05/13 00:36:03;;;;;;;15.97;6.63;;;;;;;18.25;47.15;100417.75;124673;1099;104160;-75
2022/05/13 00:38:35;;;;;;;15.27;6.50;;;;;;;18.22;47.36;100425.70;124668;1099;104313;-74
2022/05/13 00:41:06;;;;;;;13.70;6.33;;;;;;;18.18;47.80;100426.56;124796;1099;102262;-75
2022/05/13 00:43:44;;;;;;;14.47;6.60;;;;;;;18.13;48.05;100433.64;124690;1099;104325;-76
2022/05/13 00:46:19;;;;;;;12.83;6.57;;;;;;;18.08;48.70;100440.71;124731;1096;104182;-76
2022/05/13 00:48:51;;;;;;;17.87;7.30;;;;;;;18.02;48.62;100438.03;124738;1096;104291;-76
2022/05/13 00:51:27;;;;;;;14.90;6.53;;;;;;;17.98;48.47;100437.11;124711;1099;103573;-75
2022/05/13 00:54:01;;;;;;;19.23;6.57;;;;;;;17.93;48.92;100442.39;124846;1099;104871;-75
2022/05/13 00:56:31;;;;;;;;;;;;;;;17.86;48.19;100432.62;124779;1099;104188;-75
2022/05/13 00:59:07;;;;;;;14.47;6.20;;;;;;;17.82;49.16;100438.78;124678;1099;101943;-75
2022/05/13 01:01:39;;;;;;;17.53;6.60;;;;;;;17.76;49.59;100447.61;124801;1099;102288;-75
2022/05/13 01:04:14;;;;;;;13.25;6.58;;;;;;;17.70;49.62;100451.98;124672;1096;104159;-75
2022/05/13 01:06:49;;;;;;;16.90;6.13;;;;;;;17.66;49.94;100455.52;124725;1099;104150;-75
2022/05/13 01:09:21;;;;;;;13.30;6.07;;;;;;;17.60;49.26;100448.39;124694;1099;104400;-75
2022/05/13 01:11:57;;;;;;;16.83;6.87;;;;;;;17.56;49.79;100444.84;124654;1099;104185;-75
2022/05/13 01:14:34;;;;;;;14.37;6.40;;;;;;;17.55;50.39;100444.83;124743;1099;104198;-75
2022/05/13 01:20:10;;;;;;;15.93;6.77;;;;;;;17.60;50.28;100429.82;124582;1099;104165;-76
2022/05/13 01:22:46;;;;;;;13.10;6.93;;;;;;;17.68;49.98;100433.39;124871;1096;118858;-75
2022/05/13 01:25:20;;;;;;;14.43;6.50;;;;;;;17.74;49.94;100430.77;124697;1099;104213;-76
2022/05/13 01:27:51;;;;;;;;;;;;;;;17.78;49.23;100423.73;124751;1099;104056;-75
2022/05/13 01:30:30;;;;;;;13.83;6.30;;;;;;;17.83;49.86;100424.64;124746;1099;104315;-76
2022/05/13 01:33:02;;;;;;;14.60;6.20;;;;;;;17.84;49.97;100437.04;124765;1098;104185;-76
2022/05/13 01:35:37;;;;;;;13.60;5.90;;;;;;;17.83;49.78;100445.88;124763;1099;102493;-75
2022/05/13 01:38:11;;;;;;;13.30;6.13;;;;;;;17.82;50.06;100451.17;124731;1099;102254;-76
2022/05/13 01:40:41;;;;;;;;;;;;;;;17.82;49.69;100465.31;124808;1099;102790;-76
2022/05/13 01:43:13;;;;;;;16.03;6.67;;;;;;;17.80;50.59;100456.47;126036;1097;104193;-76
2022/05/13 01:45:46;;;;;;;15.57;6.30;;;;;;;17.79;50.04;100462.65;125724;1098;102190;-75
2022/05/13 01:48:18;;;;;;;14.37;6.00;;;;;;;17.76;50.20;100462.62;125398;1099;104223;-75
2022/05/13 01:50:49;;;;;;;12.70;6.43;;;;;;;17.64;50.31;100457.25;124628;1098;102258;-75
2022/05/13 01:53:22;;;;;;;16.57;6.40;;;;;;;17.65;50.52;100474.95;124783;1099;103152;-76
2022/05/13 01:55:54;;;;;;;15.85;6.62;;;;;;;17.63;50.31;100458.15;125792;1099;104249;-76
2022/05/13 01:58:27;;;;;;;13.83;6.43;;;;;;;17.60;50.92;100475.80;124783;1099;104266;-76
2022/05/13 02:01:00;;;;;;;16.70;7.23;;;;;;;17.54;50.46;100473.11;124814;1099;103030;-76
2022/05/13 02:03:46;;;;;;;14.87;7.17;;;;;;;17.48;50.95;100475.72;124739;1099;104182;-76
2022/05/13 02:06:19;;;;;;;13.93;6.40;;;;;;;17.45;50.91;100474.81;124747;1099;102103;-76
2022/05/13 02:08:52;;;;;;;16.87;7.67;;;;;;;17.39;51.42;100472.99;124660;1099;102539;-76
2022/05/13 02:11:26;;;;;;;16.03;7.33;;;;;;;17.37;51.41;100482.72;124655;1099;104287;-76
2022/05/13 02:13:57;;;;;;;15.55;7.22;;;;;;;17.33;51.35;100487.12;124221;1099;119698;-76
2022/05/13 02:16:30;;;;;;;20.97;7.40;;;;;;;17.28;51.41;100474.69;124613;1099;104227;-76
2022/05/13 02:19:03;;;;;;;19.53;7.20;;;;;;;17.27;51.46;100479.11;124728;1099;104355;-76
2022/05/13 02:21:35;;;;;;;16.37;6.60;;;;;;;17.25;51.56;100473.80;124226;1099;105220;-75
2022/05/13 02:24:07;;;;;;;14.63;7.17;;;;;;;17.25;51.83;100472.92;124592;1099;104411;-75
2022/05/13 02:26:38;;;;;;;14.43;7.23;;;;;;;17.24;51.59;100474.66;124593;1099;104377;-76
2022/05/13 02:29:10;;;;;;;16.33;7.20;;;;;;;17.25;52.26;100472.92;124243;1102;104238;-76
2022/05/13 02:31:42;;;;;;;16.00;7.00;;;;;;;17.22;51.74;100483.50;124689;1099;102274;-77
2022/05/13 02:34:14;;;;;;;15.83;7.30;;;;;;;17.17;52.07;100478.16;124648;1099;104207;-76
2022/05/13 02:36:47;;;;;;;17.07;7.20;;;;;;;17.14;52.48;100474.58;124638;1099;104156;-77
2022/05/13 02:39:18;;;;;;;17.23;7.70;;;;;;;17.15;52.43;100481.66;124301;1099;104479;-75
2022/05/13 02:41:50;;;;;;;17.53;8.30;;;;;;;17.15;52.86;100481.66;124574;1099;104452;-75
2022/05/13 02:44:22;;;;;;;19.83;8.33;;;;;;;17.16;52.32;100483.45;124646;1099;104293;-74
2022/05/13 02:46:53;;;;;;;21.33;8.73;;;;;;;17.20;52.45;100483.48;124654;1099;104472;-75
2022/05/13 02:49:25;;;;;;;18.40;8.70;;;;;;;17.21;52.26;100481.71;124666;1099;104753;-74
2022/05/13 02:51:56;;;;;;;18.73;8.37;;;;;;;17.24;52.55;100481.74;124617;1099;104196;-74
2022/05/13 02:54:27;;;;;;;21.93;8.10;;;;;;;17.24;52.49;100495.00;124733;1099;104316;-74
2022/05/13 02:56:59;;;;;;;18.10;8.13;;;;;;;17.22;52.47;100494.11;124727;1099;102251;-74
2022/05/13 02:59:32;;;;;;;19.50;8.40;;;;;;;17.19;52.83;100494.95;124713;1099;104264;-74
2022/05/13 03:02:04;;;;;;;18.20;7.95;;;;;;;17.15;52.99;100498.45;124734;1099;104219;-74
2022/05/13 03:04:35;;;;;;;16.47;7.80;;;;;;;17.11;53.34;100499.31;124778;1099;103351;-75
2022/05/13 03:07:07;;;;;;;21.43;8.60;;;;;;;17.11;53.02;100494.02;124719;1099;102434;-75
2022/05/13 03:09:39;;;;;;;19.87;8.03;;;;;;;17.12;53.47;100494.89;124775;1099;104188;-73
2022/05/13 03:12:13;;;;;;;16.37;7.53;;;;;;;17.15;53.42;100493.14;124703;1099;103578;-74
2022/05/13 03:14:44;;;;;;;19.33;7.07;;;;;;;17.17;52.84;100499.38;124771;1099;104175;-74
2022/05/13 03:17:15;;;;;;;15.47;7.70;;;;;;;17.16;53.17;100505.53;124755;1097;102273;-74
2022/05/13 03:19:48;;;;;;;17.20;7.40;;;;;;;17.19;52.91;100504.69;124722;1099;104306;-74
2022/05/13 03:22:19;;;;;;;20.20;8.60;;;;;;;17.20;53.61;100499.40;124772;1099;104220;-74
2022/05/13 03:24:51;;;;;;;16.47;7.90;;;;;;;17.20;54.34;100502.05;126002;1098;104262;-74
2022/05/13 03:27:22;;;;;;;19.40;8.30;;;;;;;17.22;53.72;100512.67;125912;1099;104198;-74
2022/05/13 03:29:54;;;;;;;19.87;8.37;;;;;;;17.21;53.88;100511.76;124737;1099;104689;-74
2022/05/13 03:32:27;;;;;;;21.00;8.53;;;;;;;17.21;53.62;100518.84;124696;1099;104631;-74
2022/05/13 03:34:59;;;;;;;15.37;8.33;;;;;;;17.21;53.83;100525.02;124654;1099;105523;-74
2022/05/13 03:37:30;;;;;;;16.47;8.40;;;;;;;17.24;54.30;100529.47;124660;1099;103430;-74
2022/05/13 03:40:01;;;;;;;16.33;8.07;;;;;;;17.28;54.56;100527.72;124689;1099;103575;-74
2022/05/13 03:42:34;;;;;;;18.87;8.40;;;;;;;17.29;54.37;100530.39;124801;1099;104231;-75
2022/05/13 03:45:08;;;;;;;18.73;7.50;;;;;;;17.35;54.36;100525.14;124699;1099;104267;-74
2022/05/13 03:47:40;;;;;;;18.00;8.07;;;;;;;17.45;54.25;100528.75;124814;1099;104201;-75
2022/05/13 03:50:13;;;;;;;17.73;7.90;;;;;;;17.54;54.41;100538.55;124768;1096;104160;-74
2022/05/13 03:52:44;;;;;;;19.77;8.07;;;;;;;17.57;54.24;100536.80;124810;1099;104207;-76
2022/05/13 03:55:16;;;;;;;16.40;7.80;;;;;;;17.67;54.56;100539.52;124808;1099;104292;-74
2022/05/13 03:57:48;;;;;;;16.37;7.97;;;;;;;17.77;54.10;100547.56;124671;1099;104191;-74
2022/05/13 04:00:20;;;;;;;20.57;8.23;;;;;;;17.85;54.30;100542.30;124846;1099;104229;-74
2022/05/13 04:02:53;;;;;;;16.33;7.87;;;;;;;17.88;54.58;100550.33;124746;1099;104205;-74
2022/05/13 04:11:03;;;;;;;22.13;9.20;;;;;;;18.12;54.06;100554.00;124660;1099;104150;-74
2022/05/13 04:16:24;;;;;;;20.67;7.70;;;;;;;18.27;54.11;100562.05;124670;1099;111910;-74
2022/05/13 04:18:55;;;;;;;18.73;7.93;;;;;;;18.36;53.88;100563.00;124768;1099;102764;-74
2022/05/13 04:21:29;;;;;;;14.20;6.97;;;;;;;18.41;53.80;100567.44;124750;1098;104299;-73
2022/05/13 04:24:02;;;;;;;20.30;7.47;;;;;;;18.44;53.98;100569.23;124694;1099;104169;-75
2022/05/13 04:26:33;;;;;;;17.23;7.17;;;;;;;18.43;53.59;100575.41;124705;1099;104153;-75
2022/05/13 04:29:06;;;;;;;14.37;7.77;;;;;;;18.42;53.92;100581.62;124695;1097;104178;-77
2022/05/13 04:31:40;;;;;;;17.83;7.90;;;;;;;18.41;53.86;100582.50;124734;1099;104192;-75
2022/05/13 04:34:11;;;;;;;15.85;6.62;;;;;;;18.41;54.27;100582.50;124731;1098;104181;-75
2022/05/13 04:36:43;;;;;;;19.27;8.13;;;;;;;18.42;54.47;100581.62;124791;1099;102756;-75
2022/05/13 04:39:14;;;;;;;15.17;7.07;;;;;;;18.43;54.29;100575.41;124680;1099;104300;-75
2022/05/13 04:44:36;;;;;;;14.37;6.63;;;;;;;18.52;54.45;100574.58;124672;1098;102152;-76
2022/05/13 04:48:15;;;;;;;14.63;6.93;;;;;;;18.57;54.22;100572.82;124674;1099;104310;-76
2022/05/13 04:50:00;;;;;;;15.70;7.13;;;;;;;18.66;54.12;100576.39;124715;1099;102797;-76
2022/05/13 04:52:31;;;;;;;16.37;6.80;;;;;;;18.75;53.92;100583.52;124791;1099;104173;-75
2022/05/13 04:55:06;;;;;;;15.33;7.07;;;;;;;18.84;54.54;100591.56;124782;1097;101796;-75
2022/05/13 04:57:38;;;;;;;13.93;6.67;;;;;;;18.87;53.85;100588.04;124818;1097;102222;-75
2022/05/13 05:00:12;;;;;;;15.87;6.47;;;;;;;18.87;54.32;100593.36;124760;1099;104229;-75
2022/05/13 05:02:43;;;;;;;13.43;6.85;;;;;;;18.89;53.78;100596.02;124775;1099;102745;-75
2022/05/13 05:05:15;;;;;;;15.33;6.20;;;;;;;18.93;54.09;100597.78;124798;1099;104162;-75
2022/05/13 05:07:49;;;;;;;14.80;6.73;;;;;;;19.00;54.14;100600.47;124739;1099;104281;-76
2022/05/13 05:10:21;;;;;;;24.93;7.47;;;;;;;19.07;53.95;100597.83;124811;1099;102079;-76
2022/05/13 05:12:55;;;;;;;20.17;6.40;;;;;;;19.15;54.20;100585.42;124757;1098;102840;-74
2022/05/13 05:15:27;;;;;;;17.50;6.90;;;;;;;19.23;53.55;100594.33;124696;1099;102206;-73
2022/05/13 05:17:59;;;;;;;21.67;6.83;;;;;;;19.32;53.93;100597.00;124668;1099;102465;-74
2022/05/13 05:20:30;;;;;;;19.80;7.60;;;;;;;19.40;53.84;100594.34;124717;1099;104157;-74
2022/05/13 05:23:01;;;;;;;20.73;7.37;;;;;;;19.51;53.64;100605.88;124768;1099;104156;-75
2022/05/13 05:25:43;;;;;;;19.33;7.43;;;;;;;19.63;54.35;100604.10;124885;1099;102749;-76
2022/05/13 05:28:15;;;;;;;16.17;7.10;;;;;;;19.73;53.30;100600.56;124695;1099;107020;-76
2022/05/13 05:30:47;;;;;;;17.33;7.60;;;;;;;19.84;53.52;100600.59;124820;1099;104393;-76
2022/05/13 05:33:20;;;;;;;18.63;7.37;;;;;;;19.96;53.48;100595.26;124786;1098;104201;-75
2022/05/13 05:35:51;;;;;;;16.60;6.80;;;;;;;20.04;53.67;100597.88;124762;1099;102573;-75
2022/05/13 05:38:28;;;;;;;18.93;7.63;;;;;;;20.12;53.59;100598.78;124808;1097;104235;-76
2022/05/13 05:41:03;;;;;;;13.87;6.40;;;;;;;20.20;53.98;100599.64;124771;1099;104220;-74
2022/05/13 05:43:35;;;;;;;17.97;6.60;;;;;;;20.33;53.53;100605.81;124806;1099;104176;-75
2022/05/13 05:46:08;;;;;;;17.73;6.87;;;;;;;20.45;53.27;100600.45;124768;1099;104226;-74
2022/05/13 05:48:41;;;;;;;16.63;7.07;;;;;;;20.57;53.15;100598.62;124830;1099;104287;-76
2022/05/13 05:51:13;;;;;;;15.53;6.97;;;;;;;20.68;53.39;100596.86;124877;1099;104195;-75
2022/05/13 05:59:24;;;;;;;17.83;7.20;;;;;;;21.03;52.84;100587.77;124711;1099;104224;-76
2022/05/13 06:01:56;;;;;;;17.33;7.30;;;;;;;21.11;53.09;100591.27;124852;1097;104208;-76
2022/05/13 06:04:28;;;;;;;15.60;6.43;;;;;;;21.23;53.28;100597.45;124859;1099;104287;-76
2022/05/13 06:07:04;;;;;;;;;;;;;;;21.32;52.52;100600.93;124942;1099;104185;-77
2022/05/13 06:09:41;;;;;;;14.83;6.27;;;;;;;21.41;52.88;100599.98;125826;1099;102843;-77
2022/05/13 06:12:17;;;;;;;18.23;6.27;;;;;;;21.51;52.81;100604.38;125809;1099;104312;-78
2022/05/13 06:14:49;;;;;;;21.57;6.97;;;;;;;21.61;52.64;100596.30;125879;1099;102339;-78
2022/05/13 06:17:26;;;;;;;15.60;6.83;;;;;;;21.74;52.56;100611.33;125695;1099;104243;-77
2022/05/13 06:20:06;;;;;;;15.07;6.33;;;;;;;21.83;52.07;100608.58;124820;1098;102771;-77
2022/05/13 06:22:38;;;;;;;15.70;6.87;;;;;;;21.95;51.98;100617.38;124807;1098;104411;-78
2022/05/13 06:25:15;;;;;;;17.87;6.63;;;;;;;22.03;52.45;100619.08;124833;1099;102553;-78
2022/05/13 06:27:50;;;;;;;17.17;6.57;;;;;;;22.12;51.82;100612.74;124960;1099;101882;-79
2022/05/13 06:30:26;;;;;;;14.33;6.10;;;;;;;22.21;52.10;100615.32;124985;1099;102617;-78
2022/05/13 06:33:06;;;;;;;12.90;6.10;;;;;;;22.33;51.72;100614.35;124951;1097;104478;-80
2022/05/13 06:35:52;;;;;;;16.40;6.57;;;;;;;22.44;51.47;100619.58;125964;1099;102371;-81
2022/05/13 06:39:00;;;;;;;;;;;;;;;;;;;;;
2022/05/13 06:42:22;;;;;;;14.10;6.17;;;;;;;22.71;51.40;100623.70;125970;1098;102579;-83
2022/05/13 06:45:08;;;;;;;12.83;5.43;;;;;;;22.85;51.71;100618.17;125895;1099;102298;-82
2022/05/13 06:47:59;;;;;;;14.40;5.70;;;;;;;23.04;51.44;100620.61;125822;1098;104279;-81
2022/05/13 06:54:26;;;;;;;12.97;5.67;;;;;;;23.41;51.12;100610.27;125836;1097;104255;-82
2022/05/13 06:57:23;;;;;;;13.07;5.40;;;;;;;23.55;50.69;100607.38;126785;1099;102058;-82
2022/05/13 07:00:47;;;;;;;;;;;;;;;;;;;;;
2022/05/13 07:03:35;;;;;;;14.17;5.83;;;;;;;23.84;50.17;100609.61;125933;1102;108803;-83
2022/05/13 07:10:03;;;;;;;14.93;5.77;;;;;;;24.07;49.77;100610.09;125649;1105;102197;-83
2022/05/13 07:12:44;;;;;;;17.50;6.20;;;;;;;24.20;49.74;100606.29;125165;1105;102630;-82
2022/05/13 07:15:32;;;;;;;18.60;6.30;;;;;;;24.33;49.31;100607.80;124981;1105;103005;-81
2022/05/13 07:26:18;;;;;;;15.03;6.07;;;;;;;24.87;48.23;100608.52;125794;1105;110900;-81
2022/05/13 07:29:11;;;;;;;14.43;5.90;;;;;;;25.02;47.70;100607.31;125760;1102;101864;-80
2022/05/13 07:31:59;;;;;;;10.80;5.57;;;;;;;25.18;47.79;100606.05;125714;1102;103411;-81
2022/05/13 07:35:21;;;;;;;;;;;;;;;;;;;;;
2022/05/13 07:41:16;;;;;;;17.77;6.50;;;;;;;25.71;46.73;100619.14;125814;1099;102498;-82
2022/05/13 07:42:14;;;;;;;14.87;5.87;;;;;;;25.99;46.90;100615.75;125837;1099;104303;-81
2022/05/13 07:49:30;;;;;;;18.07;6.07;;;;;;;26.40;45.43;100605.69;125591;1102;118623;-79
2022/05/13 07:52:50;;;;;;;11.57;5.90;;;;;;;26.51;45.35;100600.88;125182;1109;102221;-82
2022/05/13 08:02:56;;;;;;;13.83;5.03;;;;;;;27.03;44.09;100595.76;124650;1112;102579;-79
2022/05/13 08:09:49;;;;;;;13.63;5.27;;;;;;;27.31;43.06;100594.02;125261;1109;102837;-80
2022/05/13 08:13:19;;;;;;;19.20;5.80;;;;;;;27.47;42.79;100589.91;124538;1109;104224;-79
2022/05/13 08:16:29;;;;;;;21.87;5.83;;;;;;;27.65;42.94;100582.16;124560;1112;104233;-81
2022/05/13 08:19:32;;;;;;;16.50;6.00;;;;;;;27.78;42.19;100589.77;124951;1109;102277;-80
2022/05/13 08:26:11;;;;;;;13.33;4.50;;;;;;;27.88;39.90;100578.67;125208;1105;102244;-80
2022/05/13 08:29:22;;;;;;;15.43;4.87;;;;;;;27.90;40.19;100583.05;125875;1102;102138;-84
2022/05/13 08:32:39;;;;;;;15.00;4.80;;;;;;;27.91;39.29;100582.13;125916;1102;102539;-83
2022/05/13 08:35:45;;;;;;;13.90;4.27;;;;;;;27.98;38.38;100585.52;125884;1102;104296;-79
2022/05/13 08:49:39;;;;;;;9.63;4.40;;;;;;;28.58;37.78;100575.27;125657;1099;104223;-77
2022/05/13 08:53:16;;;;;;;12.30;4.80;;;;;;;28.82;37.39;100567.16;125802;1099;104281;-78
2022/05/13 08:56:33;;;;;;;;;;;;;;;;;;;;;
2022/05/13 08:59:25;;;;;;;17.47;4.60;;;;;;;28.62;36.86;100568.80;125754;1097;107029;-78
2022/05/13 09:02:06;;;;;;;13.83;5.00;;;;;;;28.70;37.04;100560.41;125801;1098;102792;-78
2022/05/13 09:05:27;;;;;;;7.37;4.10;;;;;;;28.77;36.72;100552.97;125629;1099;104169;-78
2022/05/13 09:08:14;;;;;;;14.63;4.77;;;;;;;28.79;35.99;100561.88;125757;1099;102619;-78
2022/05/13 09:11:27;;;;;;;;;;;;;;;;;;;;;
2022/05/13 09:14:18;;;;;;;11.53;3.70;;;;;;;28.87;34.91;100551.64;125736;1098;102158;-79
2022/05/13 09:17:14;;;;;;;11.67;4.60;;;;;;;28.87;34.94;100548.95;125712;1099;104232;-78
2022/05/13 09:20:04;;;;;;;18.13;4.50;;;;;;;28.86;34.96;100547.20;125581;1099;104200;-77
2022/05/13 09:22:59;;;;;;;12.00;4.67;;;;;;;28.81;34.43;100541.09;126558;1099;104181;-79
2022/05/13 09:25:43;;;;;;;7.73;3.90;;;;;;;28.82;34.87;100535.63;126217;1099;104162;-80
2022/05/13 09:28:18;;;;;;;;;;;;;;;28.73;34.10;100529.72;126296;1098;104172;-80
2022/05/13 09:31:28;;;;;;;12.40;4.50;;;;;;;28.75;34.29;100535.93;126301;1099;104198;-79
2022/05/13 09:34:32;;;;;;;15.03;4.90;;;;;;;28.79;34.50;100534.88;126695;1099;102694;-78
2022/05/13 09:37:14;;;;;;;13.27;4.23;;;;;;;28.87;33.98;100527.34;125670;1099;102365;-77
2022/05/13 09:40:10;;;;;;;14.30;4.73;;;;;;;28.87;33.38;100530.05;125723;1099;104211;-78
2022/05/13 09:43:04;;;;;;;12.67;4.60;;;;;;;28.95;33.87;100529.73;125791;1099;104201;-80
2022/05/13 09:45:40;;;;;;;12.97;4.20;;;;;;;29.01;33.74;100527.66;125900;1099;102711;-78
2022/05/13 09:48:26;;;;;;;13.97;4.30;;;;;;;29.01;33.76;100534.89;125958;1099;104192;-78
2022/05/13 09:50:59;;;;;;;18.83;4.93;;;;;;;28.94;33.54;100528.00;125990;1099;103235;-77
2022/05/13 09:53:34;;;;;;;15.27;5.47;;;;;;;28.92;33.82;100527.16;125900;1099;104226;-79
2022/05/13 09:56:24;;;;;;;9.00;4.50;;;;;;;28.91;34.01;100523.59;125851;1099;104211;-80
2022/05/13 09:59:29;;;;;;;12.33;4.53;;;;;;;28.96;33.74;100518.87;126522;1099;104217;-80
2022/05/13 10:02:41;;;;;;;16.83;5.30;;;;;;;29.06;33.89;100519.37;126775;1099;110426;-81
2022/05/13 10:16:06;;;;;;;13.20;4.90;;;;;;;28.92;33.04;100517.26;126623;1099;103055;-78
2022/05/13 10:18:52;;;;;;;17.67;4.87;;;;;;;28.85;32.82;100515.73;125491;1102;104335;-79
2022/05/13 10:21:39;;;;;;;13.40;4.73;;;;;;;28.82;33.13;100513.16;125443;1102;102581;-80
2022/05/13 10:24:36;;;;;;;12.23;4.67;;;;;;;28.81;33.27;100519.48;125292;1102;104230;-79
2022/05/13 10:27:37;;;;;;;14.90;4.90;;;;;;;28.79;32.82;100515.98;125419;1102;104466;-80
2022/05/13 10:30:27;;;;;;;14.90;4.70;;;;;;;28.88;33.08;100512.05;125377;1102;102612;-79
2022/05/13 10:33:08;;;;;;;11.60;4.57;;;;;;;28.93;32.79;100491.98;125331;1101;112083;-80
2022/05/13 10:35:59;;;;;;;14.70;5.43;;;;;;;28.98;32.64;100503.47;125418;1102;102320;-79
2022/05/13 10:38:56;;;;;;;10.03;4.60;;;;;;;29.07;32.84;100504.06;125380;1102;103311;-79
2022/05/13 10:41:46;;;;;;;13.63;5.00;;;;;;;29.13;32.91;100495.70;125407;1102;102861;-80
2022/05/13 10:44:34;;;;;;;12.03;4.50;;;;;;;29.30;32.78;100495.90;126004;1099;104213;-79
2022/05/13 10:47:25;;;;;;;14.90;4.80;;;;;;;29.22;32.47;100489.95;126481;1099;104105;-78
2022/05/13 10:50:07;;;;;;;9.53;4.37;;;;;;;29.22;32.53;100484.55;125974;1099;102120;-78
2022/05/13 10:53:00;;;;;;;9.87;4.67;;;;;;;29.19;32.44;100476.53;125867;1099;103324;-79
2022/05/13 10:55:52;;;;;;;14.77;4.83;;;;;;;29.18;32.46;100474.77;126098;1099;102598;-79
2022/05/13 10:58:49;;;;;;;16.43;5.07;;;;;;;29.17;32.46;100473.00;125975;1099;104133;-79
2022/05/13 11:01:55;;;;;;;14.07;5.20;;;;;;;29.27;32.39;100466.30;126222;1099;104165;-78
2022/05/13 11:05:14;;;;;;;12.40;4.60;;;;;;;29.34;32.43;100451.59;126860;1098;103533;-79
2022/05/13 11:08:26;;;;;;;10.23;4.77;;;;;;;29.33;32.71;100452.53;126876;1098;104177;-79
2022/05/13 11:15:03;;;;;;;10.00;4.73;;;;;;;29.71;32.22;100449.95;126197;1099;104783;-79
2022/05/13 11:17:51;;;;;;;9.80;5.13;;;;;;;29.83;32.24;100442.29;126381;1099;102834;-79
2022/05/13 11:20:55;;;;;;;11.53;4.93;;;;;;;29.92;32.12;100440.03;126108;1099;104089;-78
2022/05/13 11:25:54;;;;;;;12.93;4.90;;;;;;;29.92;32.15;100441.88;126220;1099;104287;-79
2022/05/13 11:26:52;;;;;;;11.53;5.13;;;;;;;29.81;32.06;100433.34;125944;1099;104242;-80
2022/05/13 11:29:48;;;;;;;15.83;5.40;;;;;;;29.84;31.96;100438.61;125898;1099;102291;-82
2022/05/13 11:32:54;;;;;;;11.87;5.30;;;;;;;29.79;31.77;100424.40;126412;1099;101798;-81
2022/05/13 11:39:23;;;;;;;13.77;5.20;;;;;;;29.56;31.90;100418.19;126392;1098;104181;-79
2022/05/13 11:42:30;;;;;;;11.57;5.03;;;;;;;29.43;31.83;100406.19;125852;1099;104223;-78
2022/05/13 11:49:20;;;;;;;21.57;5.70;;;;;;;29.31;31.87;100386.88;125471;1099;104172;-80
2022/05/13 11:52:43;;;;;;;10.03;5.37;;;;;;;29.39;31.81;100383.84;125220;1099;104342;-79
2022/05/13 11:55:57;;;;;;;12.68;5.10;;;;;;;29.41;32.23;100387.34;125210;1099;104163;-78
2022/05/13 11:58:57;;;;;;;11.60;5.07;;;;;;;29.27;32.10;100382.54;124996;1102;104265;-77
2022/05/13 12:02:00;;;;;;;14.50;5.20;;;;;;;29.10;32.08;100382.38;125100;1102;104178;-78
2022/05/13 12:05:02;;;;;;;14.07;5.03;;;;;;;29.00;32.32;100380.07;125051;1102;102057;-78
2022/05/13 12:07:38;;;;;;;17.80;5.77;;;;;;;29.07;32.48;100369.88;125162;1102;101973;-79
2022/05/13 12:10:46;;;;;;;13.83;5.30;;;;;;;29.18;32.41;100364.00;125273;1102;104223;-78
2022/05/13 12:13:53;;;;;;;20.00;5.63;;;;;;;29.27;32.44;100362.77;125255;1102;104198;-80
2022/05/13 12:16:47;;;;;;;16.37;5.20;;;;;;;29.35;32.31;100358.75;125405;1099;104445;-77
2022/05/13 12:19:39;;;;;;;14.87;5.30;;;;;;;29.36;32.39;100355.11;125421;1099;102727;-77
2022/05/13 12:22:40;;;;;;;15.67;5.40;;;;;;;29.42;32.39;100355.77;125749;1099;104214;-77
2022/05/13 12:25:50;;;;;;;14.77;5.63;;;;;;;29.36;32.64;100351.55;125792;1099;104232;-77
2022/05/13 12:29:01;;;;;;;14.67;5.27;;;;;;;29.40;32.76;100345.94;125828;1099;104274;-79
2022/05/13 12:32:09;;;;;;;14.60;5.57;;;;;;;29.53;32.42;100342.64;125804;1099;102070;-79
2022/05/13 12:38:20;;;;;;;16.07;5.73;;;;;;;29.56;32.38;100342.50;126190;1099;101833;-80
2022/05/13 12:41:24;;;;;;;18.17;5.77;;;;;;;29.52;32.41;100332.80;126532;1099;104091;-78
2022/05/13 12:44:49;;;;;;;18.05;5.35;;;;;;;29.38;32.44;100320.78;126373;1099;102315;-80
2022/05/13 12:47:39;;;;;;;14.73;5.43;;;;;;;29.25;32.67;100322.30;126082;1099;102789;-81
2022/05/13 12:50:40;;;;;;;19.77;6.00;;;;;;;29.11;32.50;100319.28;125499;1102;104067;-83
2022/05/13 12:54:01;;;;;;;10.63;5.30;;;;;;;29.06;32.63;100311.37;125700;1102;104370;-81
2022/05/13 12:57:08;;;;;;;13.87;5.20;;;;;;;29.17;32.63;100310.90;125335;1102;103206;-80
2022/05/13 13:00:01;;;;;;;15.90;5.50;;;;;;;29.28;32.70;100295.14;125250;1102;107763;-81
2022/05/13 13:02:49;;;;;;;14.20;5.23;;;;;;;29.30;32.76;100298.64;125196;1105;102499;-80
2022/05/13 13:05:28;;;;;;;15.90;5.83;;;;;;;29.26;32.65;100291.61;125076;1105;104193;-81
2022/05/13 13:08:35;;;;;;;10.10;5.67;;;;;;;29.23;33.04;100294.45;125275;1102;102875;-81
2022/05/13 13:11:38;;;;;;;14.17;5.90;;;;;;;29.19;32.94;100280.21;125315;1102;102406;-80
2022/05/13 13:14:32;;;;;;;14.73;5.40;;;;;;;29.29;32.82;100277.96;125451;1102;104105;-79
2022/05/13 13:17:44;;;;;;;18.13;6.43;;;;;;;29.36;32.69;100278.58;125323;1102;104255;-81
2022/05/13 13:20:46;;;;;;;16.37;5.60;;;;;;;29.44;32.54;100273.69;125602;1102;110678;-80
2022/05/13 13:23:34;;;;;;;19.80;6.03;;;;;;;29.40;32.46;100264.86;125197;1102;102634;-78
2022/05/13 13:27:00;;;;;;;;;;;;;;;;;;;;;
2022/05/13 13:30:09;;;;;;;15.32;5.75;;;;;;;29.64;32.22;100263.75;125700;1102;104121;-79
2022/05/13 13:33:02;;;;;;;17.83;6.13;;;;;;;29.75;32.24;100256.89;125835;1102;102738;-79
2022/05/13 13:35:53;;;;;;;16.30;5.57;;;;;;;29.83;32.12;100248.44;125798;1100;102318;-81
2022/05/13 13:38:27;;;;;;;14.27;5.60;;;;;;;29.83;32.34;100243.03;126491;1099;102255;-78
2022/05/13 13:41:00;;;;;;;;;;;;;;;29.75;32.40;100237.09;125700;1099;102373;-79
2022/05/13 13:43:49;;;;;;;16.20;7.20;;;;;;;29.72;32.55;100230.00;126234;1099;102258;-77
2022/05/13 13:49:35;;;;;;;17.17;6.10;;;;;;;29.64;32.12;100231.30;126474;1099;104210;-79
2022/05/13 13:52:55;;;;;;;15.33;5.60;;;;;;;29.67;32.31;100228.45;125796;1102;103038;-79
2022/05/13 14:28:53;;;;;;;18.27;5.53;;;;;;;30.04;32.18;100148.25;125469;1102;102443;-80
2022/05/13 14:31:36;;;;;;;14.20;6.33;;;;;;;29.94;32.20;100142.44;125513;1102;104226;-80
2022/05/13 14:34:35;;;;;;;15.90;5.70;;;;;;;29.83;32.32;100134.00;125858;1102;102458;-81
2022/05/13 14:37:46;;;;;;;14.30;5.40;;;;;;;29.68;32.21;100128.34;125668;1102;104243;-79